Weather observations for the past three days for
Delta County Airport
Imperial (Metric)
Date Time (edt) Wind (mph) Vis. (mi.) Weather Sky Cond. Temperature (ºF) Relative Humidity Wind Chill (°F) Heat Index (°F) Pressure Precipitation (in)
Air Dwpt 6 hour altimeter (in) sea level (mb) 1 hr 3 hr 6 hr
Max. Min.
05 08:56 NE 5 10.00 Fair CLR 64.9 60.1 84% 30.06 1018.0
05 07:56 N 3 10.00 Fair CLR 61 60.1 64.9 60.1 97% 30.04 1017.6
05 06:56 N 3 10.00 Fair CLR 60.1 60.1 100% 30.03 1017.2
05 05:56 N 7 10.00 A Few Clouds FEW080 62.1 60.1 93% 30.03 1017.2
05 04:56 Vrbl 6 10.00 Fair CLR 63 60.1 90% 30.02 1016.9
05 03:56 N 6 10.00 Overcast OVC032 64 62.1 93% 30.02 1016.9
05 02:56 NE 8 10.00 Overcast OVC030 64.9 61 87% 30.02 1016.7
05 01:56 NE 7 10.00 Overcast OVC030 64.9 61 68 64.9 87% 30.02 1016.6
05 00:56 NE 5 10.00 Overcast OVC028 66 62.1 87% 30.01 1016.4
04 23:56 NE 5 10.00 Overcast OVC026 66 63 90% 30 1016.1
04 22:56 NE 3 10.00 Mostly Cloudy BKN026 64.9 62.1 90% 30.01 1016.5
04 21:56 E 7 10.00 Overcast OVC044 66.9 61 81% 30.01 1016.2
04 20:56 NE 6 10.00 Overcast OVC029 66.9 64 91% 30.01 1016.3
04 19:56 NE 6 10.00 Overcast OVC025 68 64.9 68 66 90% 29.99 1015.7
04 18:56 NE 6 10.00 Overcast OVC017 66.9 66.9 100% 29.98 1015.4
04 17:56 E 8 3.00 Light Rain OVC005 66.2 0 0% 29.97 1015.0
04 16:56 NE 8 3.00 Light Rain Fog/Mist OVC008 66 66 100% 29.97 1015.2
04 15:56 E 8 10.00 Overcast OVC010 66.9 66.9 100% 29.98 1015.2
04 14:56 E 10 10.00 Overcast OVC012 66.9 66 97% 29.97 1014.9
04 13:56 E 9 10.00 Overcast OVC014 68 66 68 64 93% 29.97 1014.9 0.03
04 12:56 E 8 10.00 Overcast OVC012 68 66.9 96% 29.97 1015.0
04 11:56 E 13 8.00 Light Rain OVC010 66.9 66.9 100% 29.97 1014.9
04 10:56 E 15 10.00 Overcast OVC016 66.9 64.9 93% 29.97 1015.0 0.03
04 09:56 E 7 10.00 Light Rain FEW007 OVC016 64.4 0 0% 29.98 1015.4 0.03
04 08:56 NE 5 10.00 Overcast OVC012 66 66 100% 29.96 1014.6
04 07:56 E 7 10.00 Overcast OVC012 64 64 66.9 62.1 100% 29.95 1014.2 0.1
04 06:56 NE 6 10.00 Mostly Cloudy BKN012 BKN019 BKN110 63 63 100% 29.95 1014.3
04 05:56 E 7 10.00 Partly Cloudy FEW034 SCT110 63 63 100% 29.96 1014.7 0.03
04 04:56 N 9 9.00 Light Rain SCT036 BKN050 OVC120 64.4 0 0% 29.97 1015.2 0.07 0.07
04 03:56 NE 5 10.00 Light Rain FEW070 BKN090 BKN110 66.9 63 87% 29.95 1014.2
04 02:56 NE 7 10.00 Mostly Cloudy FEW040 BKN090 66.9 62.1 84% 29.94 1013.9
04 01:56 N 6 10.00 Overcast BKN042 OVC090 63 63 70 62.1 100% 29.96 1014.5
04 00:56 Calm 10.00 Partly Cloudy SCT090 64 62.1 93% 29.98 1015.1
03 23:56 Calm 10.00 Overcast OVC085 63 63 100% 29.98 1015.2
03 22:56 Calm 10.00 Overcast OVC080 63 63 100% 29.98 1015.4
03 21:56 Calm 9.00 Fair CLR 64 63 96% 29.98 1015.2
03 20:56 Calm 10.00 Fair CLR 66 62.1 87% 29.95 1014.3
03 19:56 Calm 10.00 Fair CLR 71.1 60.1 75.9 71.1 68% 29.95 1014.4
03 18:56 Calm 10.00 Fair CLR 73.9 59 60% 29.95 1014.3
03 17:56 SE 8 10.00 A Few Clouds FEW080 73.9 57.9 57% 29.94 1013.9
03 16:56 SE 8 10.00 Fair CLR 75.9 59 56% 78 29.94 1014.0
03 15:56 E 9 10.00 Fair CLR 75 57 54% 78 29.95 1014.3
03 14:56 E 14 10.00 A Few Clouds FEW050 73 57 57% 29.97 1014.9
03 13:56 SE 8 10.00 Mostly Cloudy BKN050 72 60.1 73 62.1 66% 29.98 1015.4
03 12:56 Calm 10.00 Mostly Cloudy BKN050 BKN075 72 59 64% 29.98 1015.5
03 11:56 NE 6 10.00 Partly Cloudy SCT080 72 60.1 66% 29.97 1014.9
03 10:56 Vrbl 3 10.00 Overcast FEW037 OVC075 70 62.1 76% 29.97 1014.8
03 09:56 E 6 10.00 A Few Clouds FEW075 69.1 61 76% 29.96 1014.8
03 08:56 NE 3 10.00 Fair CLR 66.9 62.1 84% 29.97 1014.9
03 07:56 N 3 10.00 Overcast OVC036 62.1 62.1 64 59 100% 29.97 1014.9
03 06:56 Calm 10.00 A Few Clouds FEW034 59 59 100% 29.96 1014.8
03 05:56 N 3 10.00 Overcast OVC034 63 63 100% 29.95 1014.3
03 04:56 N 3 10.00 Overcast OVC032 62.1 61 96% 29.95 1014.4
03 03:56 Calm 10.00 Overcast OVC032 59 0 0% 29.95 1014.2
03 02:56 Calm 10.00 Fair CLR 61 61 100% 29.95 1014.1
03 01:56 Calm 10.00 Mostly Cloudy BKN036 60.1 60.1 73 60.1 100% 29.95 1014.1
03 00:56 Calm 10.00 Fair CLR 62.1 61 96% 29.94 1014.0
02 23:56 NE 3 10.00 Fair CLR 64 63 96% 29.94 1013.9
02 22:56 Calm 10.00 Fair CLR 68 62.1 81% 29.94 1013.7
02 21:56 NE 3 10.00 Fair CLR 70 64 82% 29.91 1013.1
02 20:56 NE 5 10.00 Fair CLR 70 66 87% 29.9 1012.7
02 19:56 S 5 10.00 Fair CLR 73 66.9 79 73 81% 29.88 1012.0
02 18:56 S 8 10.00 Partly Cloudy SCT100 73.9 64 71% 29.89 1012.1
02 17:56 S 5 10.00 Mostly Cloudy BKN110 75 64.9 71% 77 29.89 1012.0
02 16:56 S 9 10.00 Fair CLR 77 66 69% 79 29.9 1012.6
02 15:56 S 10 10.00 Fair CLR 77 64 64% 79 29.91 1012.7
02 14:56 S 12 10.00 A Few Clouds FEW040 77 64.9 66% 79 29.92 1013.2
02 13:56 S 9 10.00 A Few Clouds FEW033 75 66 75.9 62.1 74% 76 29.92 1013.3 0.03
02 12:56 Vrbl 3 10.00 Mostly Cloudy BKN027 75.9 64 67% 78 29.92 1013.1
02 11:56 NW 7 10.00 Fair CLR 73 64.9 76% 29.91 1012.9
02 10:56 W 6 10.00 Mostly Cloudy BKN110 66.9 66 97% 29.94 1014.0 0.03
02 09:56 Calm 10.00 Light Rain FEW048 SCT120 64 64 100% 29.93 1013.5 0.01
Date Time (edt) Wind (mph) Vis. (mi.) Weather Sky Cond. Air Dwpt Max. Min. Relative Humidity Wind Chill (°F) Heat Index (°F) altimeter (in) sea level (mb) 1 hr 3 hr 6 hr
6 hour
Temperature (ºF) Pressure Precipitation (in)